Flight Track Log - Related Links

Times and Time Zones

All times are in EDT time to prevent confusion due to time zone crossing. See the PDT4309 flight status page for this flight to view local times or setup timezone preferences in your user account.

Time Position Orientation Groundspeed Altitude Reporting Facility
EDT Latitude Longitude Course Direction KTS MPH feet Rate Location/Type
Sat 04:25:00 PM 35.6498 -77.5311 277° West  Level FlightAware
Sat 04:25:20 PM 35.6358 -77.3708 277° West 150 173 2,700  Level Washington Center
Sat 04:26:17 PM 35.6881 -77.3744 357° North 148 170 4,000 1,220 Climbing Washington Center
Sat 04:27:18 PM 35.7336 -77.3933 341° North 165 190 5,100 1,091 Climbing Washington Center
Sat 04:28:18 PM 35.7306 -77.4522 266° West 129 148 6,200 1,140 Climbing Washington Center
Sat 04:29:19 PM 35.7233 -77.5083 261° West 145 167 7,400 1,082 Climbing Washington Center
Sat 04:30:20 PM 35.7328 -77.5725 280° West 168 193 8,400 1,008 Climbing Washington Center
Sat 04:31:18 PM 35.7381 -77.6314 276° West 181 208 9,400 1,017 Climbing Washington Center
Sat 04:32:18 PM 35.7453 -77.6958 278° West 186 214 10,400 885 Climbing Washington Center
Sat 04:33:20 PM 35.7544 -77.7625 280° West 191 220 11,200 650 Climbing Washington Center
Sat 04:34:18 PM 35.7594 -77.8369 275° West 204 235 11,700 407 Climbing Washington Center
Sat 04:35:18 PM 35.7706 -77.9139 280° West 222 255 12,000 191 Climbing Washington Center
Sat 04:35:52 PM 35.7694 -77.9650 268° West 241 277 12,000  Level Washington Center
Sat 04:36:47 PM 35.7825 -78.0397 282° West 246 283 12,000  Level Washington Center
Sat 04:37:20 PM 35.7922 -78.0783 287° West 239 275 12,000  Level Washington Center
Sat 04:38:20 PM 35.8008 -78.1633 277° West 245 282 12,000  Level Washington Center
Sat 04:39:18 PM 35.8117 -78.2481 279° West 250 288 12,000 -356 Level Washington Center
Sat 04:40:18 PM 35.8097 -78.3275 268° West 259 298 11,300 -700 Descending Washington Center
Sat 04:41:18 PM 35.8222 -78.4150 280° West 264 304 10,600 -645 Descending Washington Center
Sat 04:42:19 PM 35.8369 -78.5025 282° West 264 304 10,000 -298 Descending Washington Center
Sat 04:43:19 PM 35.8453 -78.5900 277° West 264 304 10,000  Level Washington Center
Sat 04:44:20 PM 35.8578 -78.6725 281° West 253 291 10,000  Level Washington Center
Sat 04:44:53 PM 35.8606 -78.7289 273° West 239 275 10,000  Level Washington Center
Sat 04:45:53 PM 35.8731 -78.8014 282° West 248 285 10,000  Level Washington Center
Sat 04:46:54 PM 35.8644 -78.8906 263° West 240 276 10,000  Level Washington Center
Sat 04:47:55 PM 35.8558 -78.9775 263° West 240 276 10,000  Level Washington Center
Sat 04:48:55 PM 35.8511 -79.0617 266° West 244 281 10,000  Level Washington Center
Sat 04:49:57 PM 35.8425 -79.1458 263° West 245 282 10,000  Level Washington Center
Sat 04:50:57 PM 35.8400 -79.2278 268° West 246 283 10,000 -80 Level Washington Center
Sat 04:52:00 PM 35.8327 -79.2981 263° West  Level FlightAware
Sat 04:59:00 PM 35.8006 -79.8403 270° West  Level FlightAware
Sat 05:00:00 PM 35.8007 -79.9181 270° West  Level FlightAware
Sat 05:01:00 PM 35.8007 -79.9959 270° West  Level FlightAware
Sat 05:02:00 PM 35.8007 -80.0738 270° West  Level FlightAware
Sat 05:02:28 PM 35.8119 -80.1772 211° Southwest 239 275 9,000  Level Atlanta Center
Sat 05:03:00 PM 35.8006 -80.1516 270° West  Level FlightAware
Sat 05:03:11 PM 35.8097 -80.2389 267° West 239 275 9,000  Level Atlanta Center
Sat 05:04:00 PM 35.8005 -80.2294 270° West  Level FlightAware
Sat 05:04:11 PM 35.8081 -80.3208 269° West 239 275 9,000  Level Atlanta Center
Sat 05:05:00 PM 35.8003 -80.3072 270° West  Level FlightAware
Sat 05:05:13 PM 35.8083 -80.4000 270° West 238 274 9,000  Level Atlanta Center
Sat 05:06:00 PM 35.8001 -80.3850 270° West  Level FlightAware
Sat 05:06:08 PM 35.7872 -80.4675 249° West 245 282 9,000  Level Atlanta Center
Sat 05:07:00 PM 35.7796 -80.4487 211° Southwest  Level FlightAware
Sat 05:07:15 PM 35.7219 -80.5192 213° Southwest 249 287 9,000  Level Atlanta Center
Sat 05:08:22 PM 35.6608 -80.5703 214° Southwest 247 284 9,000  Level Atlanta Center
Sat 05:09:17 PM 35.6078 -80.6133 213° Southwest 248 285 9,000  Level Atlanta Center
Sat 05:10:18 PM 35.5486 -80.6592 212° Southwest 249 287 9,000  Level Atlanta Center
Sat 05:11:19 PM 35.4894 -80.7075 214° Southwest 248 285 9,000  Level Atlanta Center
Sat 05:12:20 PM 35.4303 -80.7583 215° Southwest 246 283 9,000  Level Atlanta Center
Sat 05:13:21 PM 35.3753 -80.8039 214° Southwest 245 282 9,000  Level Atlanta Center
Sat 05:14:22 PM 35.3156 -80.8317 201° Southwest 247 284 9,000 -248 Level Atlanta Center
Sat 05:15:22 PM 35.2444 -80.8269 177° South 248 285 8,500 -1,252 Descending Atlanta Center
Sat 05:16:17 PM 35.1794 -80.8167 173° South 254 292 6,600 -1,967 Descending Atlanta Center
Sat 05:17:24 PM 35.1042 -80.8144 179° South 248 285 4,500 -1,688 Descending Atlanta Center
Sat 05:18:25 PM 35.0658 -80.8617 225° Southwest 215 247 3,000 -1,475 Descending Atlanta Center

Login

Don't have an account? Register now (free) for customized features, flight alerts, and more!